createdAt,value
2022-09-28T00:02:11.000Z,38.23
2022-09-28T00:04:37.000Z,38.2
2022-09-28T00:07:04.000Z,43.38
2022-09-28T00:09:30.000Z,37.15
2022-09-28T00:11:55.000Z,37.23
2022-09-28T00:14:20.000Z,32.27
2022-09-28T00:16:47.000Z,33.23
2022-09-28T00:19:13.000Z,38.3
2022-09-28T00:21:38.000Z,33.98
2022-09-28T00:24:05.000Z,35.17
2022-09-28T00:26:33.000Z,40.3
2022-09-28T00:28:58.000Z,35.65
2022-09-28T00:31:24.000Z,39.92
2022-09-28T00:33:49.000Z,34.35
2022-09-28T00:36:17.000Z,34.2
2022-09-28T00:38:46.000Z,32.25
2022-09-28T00:41:12.000Z,32.67
2022-09-28T00:43:38.000Z,28.67
2022-09-28T00:46:04.000Z,28.8
2022-09-28T00:48:29.000Z,29.72
2022-09-28T00:50:55.000Z,30.02
2022-09-28T00:53:22.000Z,34.33
2022-09-28T00:55:47.000Z,29.42
2022-09-28T00:58:15.000Z,30.73
2022-09-28T01:00:41.000Z,25.3
2022-09-28T01:03:08.000Z,29.12
2022-09-28T01:05:34.000Z,32.13
2022-09-28T01:08:01.000Z,27
2022-09-28T01:10:26.000Z,23.92
2022-09-28T01:12:52.000Z,25.35
2022-09-28T01:15:18.000Z,19.85
2022-09-28T01:17:44.000Z,22.37
2022-09-28T01:20:13.000Z,21.87
2022-09-28T01:22:39.000Z,22.62
2022-09-28T01:25:06.000Z,21.35
2022-09-28T01:27:35.000Z,24.05
2022-09-28T01:30:02.000Z,21.95
2022-09-28T01:32:27.000Z,23.77
2022-09-28T01:34:53.000Z,26.02
2022-09-28T01:37:19.000Z,26.8
2022-09-28T01:42:18.000Z,24.35
2022-09-28T01:44:43.000Z,27.95
2022-09-28T01:47:11.000Z,24.37
2022-09-28T01:49:36.000Z,25.72
2022-09-28T01:55:04.000Z,31.35
2022-09-28T01:57:04.000Z,32.53
2022-09-28T01:59:28.000Z,29.82
2022-09-28T02:01:57.000Z,30.35
2022-09-28T02:04:24.000Z,29.45
2022-09-28T02:09:23.000Z,27.45
2022-09-28T02:11:49.000Z,30.17
2022-09-28T02:14:21.000Z,32.6
2022-09-28T02:16:51.000Z,31.17
2022-09-28T02:19:17.000Z,31.42
2022-09-28T02:21:46.000Z,28.3
2022-09-28T02:24:12.000Z,38.67
2022-09-28T02:26:39.000Z,33.15
2022-09-28T02:29:05.000Z,25.92
2022-09-28T02:33:56.000Z,30.3
2022-09-28T02:36:23.000Z,28.5
2022-09-28T02:38:51.000Z,24.6
2022-09-28T02:41:17.000Z,29.63
2022-09-28T02:43:43.000Z,27.1
2022-09-28T02:46:08.000Z,26.87
2022-09-28T02:48:35.000Z,24.5
2022-09-28T02:51:02.000Z,23.57
2022-09-28T02:53:30.000Z,27.48
2022-09-28T02:56:00.000Z,26.67
2022-09-28T03:01:01.000Z,29.07
2022-09-28T03:03:29.000Z,25.8
2022-09-28T03:08:31.000Z,25.52
2022-09-28T03:10:59.000Z,23.97
2022-09-28T03:13:25.000Z,24.63
2022-09-28T03:15:51.000Z,30.7
2022-09-28T03:18:17.000Z,28.83
2022-09-28T03:20:43.000Z,25.12
2022-09-28T03:23:11.000Z,23.52
2022-09-28T03:25:39.000Z,25.33
2022-09-28T03:28:06.000Z,25.65
2022-09-28T03:30:31.000Z,25.85
2022-09-28T03:32:59.000Z,26.35
2022-09-28T03:35:25.000Z,26.75
2022-09-28T03:37:53.000Z,22.33
2022-09-28T03:40:24.000Z,26.25
2022-09-28T03:42:53.000Z,22.77
2022-09-28T03:45:23.000Z,23.4
2022-09-28T03:47:50.000Z,27.23
2022-09-28T03:50:20.000Z,24.7
2022-09-28T03:52:45.000Z,29.25
2022-09-28T03:55:13.000Z,27.48
2022-09-28T03:57:42.000Z,22.6
2022-09-28T04:00:17.000Z,26.27
2022-09-28T04:02:41.000Z,24.65
2022-09-28T04:05:08.000Z,22.25
2022-09-28T04:07:34.000Z,22.77
2022-09-28T04:10:05.000Z,30.33
2022-09-28T04:12:31.000Z,23.73
2022-09-28T04:14:57.000Z,23.87
2022-09-28T04:17:25.000Z,24.8
2022-09-28T04:19:53.000Z,27.1
2022-09-28T04:22:22.000Z,23.57
2022-09-28T04:27:22.000Z,21.37
2022-09-28T04:29:48.000Z,18.67
2022-09-28T04:32:20.000Z,20
2022-09-28T04:34:51.000Z,18.9
2022-09-28T04:37:20.000Z,22.1
2022-09-28T04:39:49.000Z,21.77
2022-09-28T04:42:15.000Z,18.42
2022-09-28T04:44:51.000Z,19.98
2022-09-28T04:47:16.000Z,19.7
2022-09-28T04:49:44.000Z,22.45
2022-09-28T04:52:12.000Z,21.02
2022-09-28T04:54:38.000Z,21.07
2022-09-28T04:57:03.000Z,20.77
2022-09-28T04:59:28.000Z,16.87
2022-09-28T05:01:54.000Z,21.2
2022-09-28T05:04:20.000Z,22.25
2022-09-28T05:06:47.000Z,17.37
2022-09-28T05:09:15.000Z,15.72
2022-09-28T05:11:42.000Z,15.43
2022-09-28T05:14:06.000Z,19.33
2022-09-28T05:16:37.000Z,17.73
2022-09-28T05:19:04.000Z,18.48
2022-09-28T05:21:29.000Z,14.58
2022-09-28T05:23:58.000Z,18.23
2022-09-28T05:26:27.000Z,14.45
2022-09-28T05:28:58.000Z,18.2
2022-09-28T05:31:28.000Z,19.17
2022-09-28T05:33:55.000Z,16.33
2022-09-28T05:36:20.000Z,14.65
2022-09-28T05:38:46.000Z,17.4
2022-09-28T05:41:12.000Z,21.7
2022-09-28T05:46:08.000Z,26.35
2022-09-28T05:48:34.000Z,24.7
2022-09-28T05:53:42.000Z,40.13
2022-09-28T05:56:11.000Z,40.23
2022-09-28T06:01:10.000Z,37.48
2022-09-28T06:03:36.000Z,31.82
2022-09-28T06:06:02.000Z,43.7
2022-09-28T06:08:30.000Z,34.37
2022-09-28T06:11:09.000Z,32.88
2022-09-28T06:13:36.000Z,40.7
2022-09-28T06:18:36.000Z,36.23
2022-09-28T06:21:02.000Z,41.95
2022-09-28T06:23:31.000Z,41.87
2022-09-28T06:25:57.000Z,43.98
2022-09-28T06:28:26.000Z,42.73
2022-09-28T06:31:02.000Z,45.23
2022-09-28T06:33:31.000Z,45.25
2022-09-28T06:36:03.000Z,46.13
2022-09-28T06:38:32.000Z,47.6
2022-09-28T06:41:06.000Z,45.6
2022-09-28T06:43:33.000Z,42.43
2022-09-28T06:48:30.000Z,40.78
2022-09-28T06:50:57.000Z,47.05
2022-09-28T06:55:56.000Z,49
2022-09-28T06:58:36.000Z,42.58
2022-09-28T07:01:03.000Z,43
2022-09-28T07:03:31.000Z,46.25
2022-09-28T07:05:57.000Z,44.3
2022-09-28T07:08:25.000Z,45.17
2022-09-28T07:10:56.000Z,47.47
2022-09-28T07:18:32.000Z,43.1
2022-09-28T07:21:00.000Z,47.03
2022-09-28T07:23:26.000Z,42.23
2022-09-28T07:26:09.000Z,44.45
2022-09-28T07:28:37.000Z,46.58
2022-09-28T07:31:22.000Z,51.55
2022-09-28T07:33:44.000Z,46.47
2022-09-28T07:36:12.000Z,42.6
2022-09-28T07:38:37.000Z,45.5
2022-09-28T12:09:53.000Z,42.83
2022-09-28T12:12:20.000Z,46.88
2022-09-28T12:14:45.000Z,51.05
2022-09-28T12:17:12.000Z,52.8
2022-09-28T12:19:38.000Z,53
2022-09-28T12:22:04.000Z,51.43
2022-09-28T12:24:29.000Z,57.67
2022-09-28T12:26:55.000Z,60.38
2022-09-28T12:29:20.000Z,56.5
2022-09-28T12:31:49.000Z,57.85
2022-09-28T12:34:16.000Z,54.27
2022-09-28T12:36:51.000Z,54.35
2022-09-28T12:39:17.000Z,55.77
2022-09-28T12:41:53.000Z,53.6
2022-09-28T12:44:25.000Z,51.35
2022-09-28T12:46:50.000Z,48.75
2022-09-28T12:49:22.000Z,47.27
2022-09-28T12:51:51.000Z,53.92
2022-09-28T12:54:18.000Z,56.5
2022-09-28T12:56:45.000Z,49.42
2022-09-28T12:59:10.000Z,46.97
2022-09-28T13:01:36.000Z,56.27
2022-09-28T13:04:02.000Z,47.75
2022-09-28T13:06:28.000Z,49.42
2022-09-28T13:08:53.000Z,50.92
2022-09-28T13:11:20.000Z,45.3
2022-09-28T13:13:47.000Z,48.23
2022-09-28T13:16:13.000Z,44.1
2022-09-28T13:18:38.000Z,44.05
2022-09-28T13:21:11.000Z,39.88
2022-09-28T13:23:37.000Z,45.1
2022-09-28T13:26:02.000Z,44.67
2022-09-28T13:28:31.000Z,43.5
2022-09-28T13:33:22.000Z,47.35
2022-09-28T13:35:49.000Z,45.1
2022-09-28T13:38:18.000Z,41.6
2022-09-28T13:40:48.000Z,44.65
2022-09-28T13:43:17.000Z,45.92
2022-09-28T13:45:46.000Z,45.07
2022-09-28T13:48:10.000Z,42.33
2022-09-28T13:50:38.000Z,45.52
2022-09-28T13:53:02.000Z,45.65
2022-09-28T13:55:29.000Z,42.15
2022-09-28T13:57:56.000Z,41.98
2022-09-28T14:00:30.000Z,47.85
2022-09-28T14:02:53.000Z,46.42
2022-09-28T14:05:19.000Z,39.25
2022-09-28T14:07:45.000Z,40.43
2022-09-28T14:10:15.000Z,41.47
2022-09-28T14:12:46.000Z,42.78
2022-09-28T14:15:10.000Z,41.25
2022-09-28T14:17:36.000Z,41.77
2022-09-28T14:20:06.000Z,42.55
2022-09-28T14:22:29.000Z,44.2
2022-09-28T14:24:56.000Z,43.15
2022-09-28T14:27:25.000Z,42.83
2022-09-28T14:29:51.000Z,42.1
2022-09-28T14:32:20.000Z,41.9
2022-09-28T14:34:45.000Z,42
2022-09-28T14:37:18.000Z,39.73
2022-09-28T14:39:44.000Z,43.73
2022-09-28T14:42:11.000Z,39.67
2022-09-28T14:44:39.000Z,42.97
2022-09-28T14:47:07.000Z,43.2
2022-09-28T14:49:35.000Z,46.28
2022-09-28T14:52:07.000Z,46
2022-09-28T14:54:34.000Z,39.08
2022-09-28T14:56:59.000Z,46.45
2022-09-28T14:59:26.000Z,45.78
2022-09-28T15:01:52.000Z,43.1
2022-09-28T15:04:19.000Z,41.37
2022-09-28T15:06:46.000Z,44.42
2022-09-28T15:09:12.000Z,41.48
2022-09-28T15:11:41.000Z,44.3
2022-09-28T15:14:08.000Z,45.35
2022-09-28T15:16:35.000Z,43.87
2022-09-28T15:19:07.000Z,45.83
2022-09-28T15:21:32.000Z,43.17
2022-09-28T15:23:59.000Z,48.05
2022-09-28T15:26:24.000Z,48.05
2022-09-28T15:28:49.000Z,44.85
2022-09-28T15:31:21.000Z,47.4
2022-09-28T15:33:42.000Z,48.17
2022-09-28T15:36:08.000Z,42.03
2022-09-28T15:38:34.000Z,45.33
2022-09-28T15:41:00.000Z,42.5
2022-09-28T15:43:27.000Z,45.55
2022-09-28T15:45:53.000Z,46.95
2022-09-28T15:48:22.000Z,48.7
2022-09-28T15:50:47.000Z,45.73
2022-09-28T15:53:15.000Z,42.75
2022-09-28T15:55:40.000Z,44.88
2022-09-28T15:58:07.000Z,40.9
2022-09-28T16:00:34.000Z,42.27
2022-09-28T16:03:00.000Z,44.03
2022-09-28T16:05:25.000Z,39.63
2022-09-28T16:07:51.000Z,38.42
2022-09-28T16:10:21.000Z,39.67
2022-09-28T16:12:42.000Z,39.27
2022-09-28T16:15:10.000Z,34.17
2022-09-28T16:17:34.000Z,35.37
2022-09-28T16:20:00.000Z,34.63
2022-09-28T16:22:27.000Z,33.58
2022-09-28T16:25:02.000Z,32.73
2022-09-28T16:27:18.000Z,33.23
2022-09-28T16:29:43.000Z,32.7
2022-09-28T16:32:09.000Z,30.8
2022-09-28T16:34:35.000Z,28.15
2022-09-28T16:37:00.000Z,35.25
2022-09-28T16:39:26.000Z,34.65
2022-09-28T16:41:52.000Z,38.1
2022-09-28T16:44:18.000Z,35.6
2022-09-28T16:46:44.000Z,36.17
2022-09-28T16:49:10.000Z,34.3
2022-09-28T16:51:35.000Z,32.67
2022-09-28T16:54:01.000Z,31.67
2022-09-28T16:56:29.000Z,35.23
2022-09-28T16:58:52.000Z,36.4
2022-09-28T17:01:17.000Z,37.17
2022-09-28T17:03:43.000Z,34.55
2022-09-28T17:06:10.000Z,35.88
2022-09-28T17:08:36.000Z,37.97
2022-09-28T17:11:00.000Z,39.3
2022-09-28T17:13:27.000Z,36.6
2022-09-28T17:15:52.000Z,39.13
2022-09-28T17:18:18.000Z,39.17
2022-09-28T17:20:44.000Z,35.4
2022-09-28T17:23:11.000Z,41.08
2022-09-28T17:25:38.000Z,39.27
2022-09-28T17:28:02.000Z,40
2022-09-28T17:30:27.000Z,41.02
2022-09-28T17:32:54.000Z,38.53
2022-09-28T17:35:19.000Z,37.83
2022-09-28T17:37:44.000Z,37.97
2022-09-28T17:40:14.000Z,38.4
2022-09-28T17:42:36.000Z,41.7
2022-09-28T17:45:05.000Z,39.15
2022-09-28T17:47:28.000Z,41.23
2022-09-28T17:49:53.000Z,47.87
2022-09-28T17:52:20.000Z,43.15
2022-09-28T17:54:46.000Z,43.68
2022-09-28T17:57:12.000Z,43.38
2022-09-28T17:59:37.000Z,46.07
2022-09-28T18:02:02.000Z,45.2
2022-09-28T18:04:28.000Z,40.58
2022-09-28T18:06:53.000Z,46
2022-09-28T18:09:20.000Z,42.97
2022-09-28T18:11:45.000Z,44.9
2022-09-28T18:14:12.000Z,43.3
2022-09-28T18:16:38.000Z,45.78
2022-09-28T18:19:03.000Z,43.1
2022-09-28T18:21:28.000Z,51.48
2022-09-28T18:23:55.000Z,46.25
2022-09-28T18:26:20.000Z,42.8
2022-09-28T18:28:46.000Z,48.73
2022-09-28T18:31:12.000Z,47.98
2022-09-28T18:33:37.000Z,46.6
2022-09-28T18:36:04.000Z,41.48
2022-09-28T18:38:29.000Z,42.75
2022-09-28T18:40:55.000Z,44.13
2022-09-28T18:43:23.000Z,45.4
2022-09-28T18:45:48.000Z,42.23
2022-09-28T18:48:13.000Z,40.75
2022-09-28T18:50:38.000Z,43.53
2022-09-28T18:53:06.000Z,36.23
2022-09-28T18:55:31.000Z,35.52
2022-09-28T18:57:56.000Z,33.3
2022-09-28T19:00:26.000Z,32.27
2022-09-28T19:02:47.000Z,30.5
2022-09-28T19:05:13.000Z,33.88
2022-09-28T19:07:39.000Z,33.15
2022-09-28T19:10:06.000Z,30.55
2022-09-28T19:12:30.000Z,33.65
2022-09-28T19:14:59.000Z,28
2022-09-28T19:17:22.000Z,32.3
2022-09-28T19:19:48.000Z,28.67
2022-09-28T19:22:14.000Z,33.3
2022-09-28T19:24:39.000Z,25.67
2022-09-28T19:27:05.000Z,27.13
2022-09-28T19:29:30.000Z,25.6
2022-09-28T19:31:57.000Z,25.72
2022-09-28T19:34:22.000Z,25.6
2022-09-28T19:36:47.000Z,29.33
2022-09-28T19:39:13.000Z,26.55
2022-09-28T19:41:39.000Z,28.3
2022-09-28T19:44:06.000Z,28.33
2022-09-28T19:46:31.000Z,24.72
2022-09-28T19:48:57.000Z,27.27
2022-09-28T19:51:22.000Z,28.47
2022-09-28T19:53:48.000Z,25.65
2022-09-28T19:56:14.000Z,28.05
2022-09-28T19:58:39.000Z,25.9
2022-09-28T20:01:06.000Z,27.7
2022-09-28T20:03:31.000Z,27.45
2022-09-28T20:05:57.000Z,27.58
2022-09-28T20:08:23.000Z,33.75
2022-09-28T20:10:49.000Z,32.4
2022-09-28T20:13:15.000Z,25.95
2022-09-28T20:15:42.000Z,24.8
2022-09-28T20:18:10.000Z,26.68
2022-09-28T20:20:32.000Z,28.23
2022-09-28T20:22:58.000Z,28.77
2022-09-28T20:25:23.000Z,32
2022-09-28T20:27:49.000Z,28.87
2022-09-28T20:30:20.000Z,29.1
2022-09-28T20:32:40.000Z,29.33
2022-09-28T20:35:07.000Z,25.82
2022-09-28T20:37:33.000Z,30.35
2022-09-28T20:39:59.000Z,28.67
2022-09-28T20:42:23.000Z,27.17
2022-09-28T20:44:49.000Z,26.5
2022-09-28T20:47:17.000Z,28.95
2022-09-28T20:49:41.000Z,27.93
2022-09-28T20:52:06.000Z,27.37
2022-09-28T20:54:33.000Z,25
2022-09-28T20:56:57.000Z,27.52
2022-09-28T20:59:24.000Z,32.85
2022-09-28T21:01:50.000Z,28.52
2022-09-28T21:04:15.000Z,25.8
2022-09-28T21:06:42.000Z,27.93
2022-09-28T21:09:06.000Z,29.82
2022-09-28T21:11:32.000Z,29.4
2022-09-28T21:13:59.000Z,28.85
2022-09-28T21:16:24.000Z,31.45
2022-09-28T21:18:49.000Z,32.1
2022-09-28T21:21:16.000Z,33.57
2022-09-28T21:23:41.000Z,28.98
2022-09-28T21:26:07.000Z,29.45
2022-09-28T21:28:33.000Z,32.78
2022-09-28T21:30:59.000Z,30.9
2022-09-28T21:33:25.000Z,30.08
2022-09-28T21:35:50.000Z,32.63
2022-09-28T21:38:16.000Z,31.73
2022-09-28T21:40:41.000Z,30.7
2022-09-28T21:43:07.000Z,28.5
2022-09-28T21:45:33.000Z,30.57
2022-09-28T21:47:59.000Z,27.3
2022-09-28T21:50:25.000Z,26.07
2022-09-28T21:52:50.000Z,32.43
2022-09-28T21:55:18.000Z,30.17
2022-09-28T21:57:42.000Z,30.17
2022-09-28T22:00:15.000Z,29.82
2022-09-28T22:02:34.000Z,29.67
2022-09-28T22:04:59.000Z,30.43
2022-09-28T22:07:26.000Z,26.97
2022-09-28T22:09:51.000Z,29.8
2022-09-28T22:12:16.000Z,29.27
2022-09-28T22:14:44.000Z,28.2
2022-09-28T22:17:09.000Z,27.73
2022-09-28T22:19:34.000Z,30.3
2022-09-28T22:22:00.000Z,30.97
2022-09-28T22:24:26.000Z,27.6
2022-09-28T22:26:52.000Z,32.15
2022-09-28T22:29:17.000Z,29.55
2022-09-28T22:31:43.000Z,32.23
2022-09-28T22:34:08.000Z,30.87
2022-09-28T22:36:35.000Z,34.1
2022-09-28T22:39:00.000Z,33.3
2022-09-28T22:41:26.000Z,34.33
2022-09-28T22:43:52.000Z,33
2022-09-28T22:46:18.000Z,34.2
2022-09-28T22:48:43.000Z,38.43
2022-09-28T22:51:09.000Z,36.3
2022-09-28T22:53:35.000Z,33.48
2022-09-28T22:56:00.000Z,36.13
2022-09-28T22:58:26.000Z,37.45
2022-09-28T23:00:53.000Z,35.23
2022-09-28T23:03:18.000Z,36.2
2022-09-28T23:05:43.000Z,34.53
2022-09-28T23:08:11.000Z,33.35
2022-09-28T23:10:37.000Z,35.15
2022-09-28T23:13:01.000Z,41.9
2022-09-28T23:15:27.000Z,41.42
2022-09-28T23:17:53.000Z,39.45
2022-09-28T23:20:19.000Z,37.6
2022-09-28T23:22:44.000Z,36.17
2022-09-28T23:25:12.000Z,42.2
2022-09-28T23:27:36.000Z,37.45
2022-09-28T23:30:04.000Z,35.17
2022-09-28T23:32:28.000Z,42.5
2022-09-28T23:34:53.000Z,38.45
2022-09-28T23:37:19.000Z,40.63
2022-09-28T23:39:45.000Z,41.73
2022-09-28T23:42:13.000Z,42.63
2022-09-28T23:44:39.000Z,44.8
2022-09-28T23:47:03.000Z,42.75
2022-09-28T23:49:29.000Z,43.38
2022-09-28T23:51:56.000Z,34.78
2022-09-28T23:54:44.000Z,35.35
2022-09-28T23:56:46.000Z,34.85
2022-09-28T23:59:12.000Z,33.8
